createdAt,value
2023-03-01T00:00:01.254Z,8.61
2023-03-01T00:02:27.953Z,8.65
2023-03-01T00:04:54.475Z,8.61
2023-03-01T00:07:21.172Z,8.62
2023-03-01T00:09:47.658Z,8.60
2023-03-01T00:12:14.240Z,8.71
2023-03-01T00:14:40.943Z,8.79
2023-03-01T00:17:07.644Z,8.74
2023-03-01T00:19:34.322Z,8.63
2023-03-01T00:22:00.888Z,8.33
2023-03-01T00:24:27.475Z,8.28
2023-03-01T00:26:56.543Z,8.38
2023-03-01T00:29:25.304Z,8.55
2023-03-01T00:31:52.383Z,8.64
2023-03-01T00:34:19.038Z,8.71
2023-03-01T00:36:45.720Z,8.51
2023-03-01T00:39:15.711Z,8.41
2023-03-01T00:41:43.672Z,8.23
2023-03-01T00:44:10.696Z,8.21
2023-03-01T00:46:37.435Z,8.31
2023-03-01T00:49:05.494Z,8.29
2023-03-01T00:51:32.159Z,8.09
2023-03-01T00:54:01.223Z,7.87
2023-03-01T00:56:28.821Z,7.73
2023-03-01T00:58:55.629Z,7.69
2023-03-01T01:01:25.100Z,7.85
2023-03-01T01:03:54.328Z,7.89
2023-03-01T01:06:23.779Z,7.78
2023-03-01T01:08:51.860Z,7.85
2023-03-01T01:11:18.718Z,7.87
2023-03-01T01:13:47.204Z,7.73
2023-03-01T01:16:14.790Z,7.67
2023-03-01T01:18:42.155Z,7.78
2023-03-01T01:21:11.432Z,7.69
2023-03-01T01:23:40.748Z,7.36
2023-03-01T01:26:16.601Z,7.13
2023-03-01T01:28:43.714Z,7.37
2023-03-01T01:31:10.479Z,7.72
2023-03-01T01:33:38.313Z,7.63
2023-03-01T01:36:09.222Z,7.76
2023-03-01T01:38:37.452Z,7.79
2023-03-01T01:41:04.970Z,8.10
2023-03-01T01:43:35.258Z,8.11
2023-03-01T01:46:20.430Z,8.13
2023-03-01T01:49:15.917Z,8.02
2023-03-01T01:51:47.128Z,8.11
2023-03-01T01:54:19.398Z,8.09
2023-03-01T01:56:54.113Z,8.03
2023-03-01T01:59:25.313Z,8.02
2023-03-01T02:01:53.653Z,8.05
2023-03-01T02:04:20.704Z,8.13
2023-03-01T02:06:55.147Z,8.00
2023-03-01T02:09:23.999Z,7.83
2023-03-01T02:11:52.076Z,8.09
2023-03-01T02:14:18.950Z,8.16
2023-03-01T02:16:45.616Z,8.04
2023-03-01T02:19:32.168Z,7.87
2023-03-01T02:22:24.494Z,7.77
2023-03-01T02:25:10.135Z,7.91
2023-03-01T02:27:49.795Z,7.89
2023-03-01T02:30:16.937Z,7.82
2023-03-01T02:32:44.566Z,7.81
2023-03-01T02:35:14.451Z,7.81
2023-03-01T02:37:43.406Z,7.88
2023-03-01T02:40:14.104Z,7.84
2023-03-01T02:42:54.657Z,7.65
2023-03-01T02:45:22.105Z,7.69
2023-03-01T02:47:48.825Z,7.47
2023-03-01T02:50:23.644Z,7.40
2023-03-01T02:53:09.021Z,7.61
2023-03-01T02:55:35.725Z,7.78
2023-03-01T02:58:04.365Z,7.57
2023-03-01T03:00:40.932Z,7.54
2023-03-01T03:03:08.000Z,7.40
2023-03-01T03:05:34.606Z,7.33
2023-03-01T03:08:03.335Z,7.22
2023-03-01T03:10:40.491Z,7.12
2023-03-01T03:13:11.389Z,7.11
2023-03-01T03:15:39.422Z,7.32
2023-03-01T03:18:09.405Z,7.22
2023-03-01T03:20:37.206Z,6.76
2023-03-01T03:23:03.794Z,6.78
2023-03-01T03:25:30.736Z,6.88
2023-03-01T03:27:57.972Z,7.12
2023-03-01T03:30:27.618Z,7.09
2023-03-01T03:32:54.527Z,7.10
2023-03-01T03:35:30.940Z,7.07
2023-03-01T03:38:03.586Z,6.98
2023-03-01T03:40:39.799Z,6.95
2023-03-01T03:43:14.943Z,6.88
2023-03-01T03:45:41.853Z,6.68
2023-03-01T03:48:10.602Z,6.53
2023-03-01T03:50:38.425Z,6.65
2023-03-01T03:53:08.719Z,6.41
2023-03-01T03:55:36.196Z,6.28
2023-03-01T03:58:07.632Z,6.28
2023-03-01T04:00:40.649Z,6.48
2023-03-01T04:03:07.936Z,6.64
2023-03-01T04:05:34.791Z,6.80
2023-03-01T04:08:07.918Z,6.76
2023-03-01T04:10:38.327Z,6.68
2023-03-01T04:13:06.867Z,6.66
2023-03-01T04:15:34.026Z,6.67
2023-03-01T04:18:01.195Z,6.66
2023-03-01T04:20:34.501Z,6.62
2023-03-01T04:23:11.558Z,6.91
2023-03-01T04:25:42.297Z,6.92
2023-03-01T04:28:10.446Z,6.82
2023-03-01T04:30:38.454Z,6.58
2023-03-01T04:33:09.846Z,6.49
2023-03-01T04:35:37.698Z,6.52
2023-03-01T04:38:06.037Z,6.61
2023-03-01T04:40:33.084Z,6.77
2023-03-01T04:42:59.672Z,6.84
2023-03-01T04:45:26.339Z,6.92
2023-03-01T04:47:55.710Z,6.97
2023-03-01T04:50:24.303Z,6.92
2023-03-01T04:52:50.823Z,6.98
2023-03-01T04:55:17.446Z,6.96
2023-03-01T04:57:44.362Z,7.04
2023-03-01T05:00:21.956Z,7.04
2023-03-01T05:02:54.617Z,7.12
2023-03-01T05:05:26.972Z,7.04
2023-03-01T05:07:55.008Z,7.00
2023-03-01T05:10:22.056Z,6.86
2023-03-01T05:12:48.715Z,6.78
2023-03-01T05:15:15.706Z,6.73
2023-03-01T05:17:42.913Z,6.88
2023-03-01T05:20:11.024Z,6.72
2023-03-01T05:22:37.674Z,6.50
2023-03-01T05:25:05.087Z,6.62
2023-03-01T05:27:31.911Z,6.55
2023-03-01T05:29:58.416Z,6.79
2023-03-01T05:32:25.193Z,6.66
2023-03-01T05:34:53.032Z,6.54
2023-03-01T05:37:20.399Z,6.32
2023-03-01T05:39:48.105Z,6.46
2023-03-01T05:42:15.480Z,6.21
2023-03-01T05:44:42.010Z,5.71
2023-03-01T05:47:08.593Z,5.64
2023-03-01T05:49:35.886Z,6.07
2023-03-01T05:52:03.216Z,6.39
2023-03-01T05:54:29.749Z,6.41
2023-03-01T05:56:57.149Z,6.51
2023-03-01T05:59:23.660Z,6.46
2023-03-01T06:01:50.885Z,6.72
2023-03-01T06:04:17.444Z,6.54
2023-03-01T06:06:44.076Z,6.41
2023-03-01T06:09:10.947Z,6.44
2023-03-01T06:11:38.223Z,6.61
2023-03-01T06:14:07.302Z,6.42
2023-03-01T06:16:33.930Z,6.16
2023-03-01T06:19:00.442Z,6.06
2023-03-01T06:21:27.058Z,5.98
2023-03-01T06:23:53.544Z,6.00
2023-03-01T06:26:20.274Z,6.00
2023-03-01T06:28:47.022Z,5.97
2023-03-01T06:31:13.720Z,6.27
2023-03-01T06:33:40.526Z,6.34
2023-03-01T06:36:08.177Z,6.15
2023-03-01T06:38:34.969Z,6.48
2023-03-01T06:41:02.189Z,6.62
2023-03-01T06:43:28.887Z,6.58
2023-03-01T06:45:55.688Z,6.64
2023-03-01T06:48:22.208Z,6.71
2023-03-01T06:50:48.831Z,6.88
2023-03-01T06:53:15.375Z,6.96
2023-03-01T06:55:42.086Z,6.95
2023-03-01T06:58:09.883Z,7.08
2023-03-01T07:00:36.431Z,7.26
2023-03-01T07:03:03.418Z,7.40
2023-03-01T07:05:31.209Z,7.47
2023-03-01T07:07:58.045Z,7.68
2023-03-01T07:10:24.995Z,7.58
2023-03-01T07:12:54.807Z,7.44
2023-03-01T07:15:21.319Z,7.50
2023-03-01T07:17:50.816Z,7.41
2023-03-01T07:20:18.808Z,7.32
2023-03-01T07:22:45.421Z,7.12
2023-03-01T07:25:12.159Z,7.26
2023-03-01T07:27:38.819Z,7.39
2023-03-01T07:30:06.083Z,7.39
2023-03-01T07:32:32.688Z,7.25
2023-03-01T07:34:59.294Z,7.33
2023-03-01T07:37:25.765Z,7.40
2023-03-01T07:39:52.360Z,7.50
2023-03-01T07:42:18.919Z,7.25
2023-03-01T07:44:45.469Z,7.13
2023-03-01T07:47:12.094Z,7.26
2023-03-01T07:49:38.765Z,7.44
2023-03-01T07:52:05.286Z,7.66
2023-03-01T07:54:31.938Z,7.88
2023-03-01T07:56:58.586Z,7.82
2023-03-01T08:04:20.669Z,7.81
2023-03-01T08:06:47.828Z,8.01
2023-03-01T08:09:14.307Z,8.08
2023-03-01T08:11:40.907Z,8.06
2023-03-01T08:14:07.638Z,8.14
2023-03-01T08:16:36.214Z,8.28
2023-03-01T08:19:11.494Z,8.34
2023-03-01T08:21:38.691Z,8.56
2023-03-01T08:24:06.951Z,8.46
2023-03-01T08:26:34.626Z,8.45
2023-03-01T08:29:02.103Z,8.59
2023-03-01T08:31:36.555Z,8.32
2023-03-01T08:34:06.712Z,8.47
2023-03-01T08:36:39.201Z,8.60
2023-03-01T08:39:06.594Z,8.78
2023-03-01T08:41:33.469Z,8.89
2023-03-01T08:44:00.195Z,8.93
2023-03-01T08:46:34.258Z,8.91
2023-03-01T08:49:01.223Z,8.88
2023-03-01T08:51:27.886Z,8.98
2023-03-01T08:53:54.930Z,9.08
2023-03-01T08:56:25.112Z,8.94
2023-03-01T08:58:51.755Z,8.86
2023-03-01T09:01:19.911Z,8.96
2023-03-01T09:03:47.134Z,9.03
2023-03-01T09:06:14.924Z,9.18
2023-03-01T09:08:47.555Z,9.43
2023-03-01T09:11:17.639Z,9.49
2023-03-01T09:13:45.676Z,9.39
2023-03-01T09:16:15.136Z,9.55
2023-03-01T09:18:42.192Z,9.45
2023-03-01T09:21:11.975Z,9.49
2023-03-01T09:23:40.865Z,9.53
2023-03-01T09:26:09.828Z,9.67
2023-03-01T09:28:37.280Z,9.80
2023-03-01T09:31:05.178Z,9.79
2023-03-01T09:33:33.816Z,9.84
2023-03-01T09:36:02.208Z,10.01
2023-03-01T09:38:29.116Z,9.85
2023-03-01T09:40:55.922Z,9.63
2023-03-01T09:43:46.692Z,9.74
2023-03-01T09:46:17.482Z,10.04
2023-03-01T09:48:51.492Z,10.19
2023-03-01T09:51:30.187Z,10.07
2023-03-01T09:53:59.445Z,9.90
2023-03-01T09:56:34.429Z,10.05
2023-03-01T09:59:20.484Z,10.22
2023-03-01T10:01:57.514Z,10.14
2023-03-01T10:04:34.920Z,10.34
2023-03-01T10:07:24.001Z,10.49
2023-03-01T10:09:50.884Z,10.61
2023-03-01T10:12:21.600Z,10.53
2023-03-01T10:15:05.233Z,10.60
2023-03-01T10:17:49.422Z,10.66
2023-03-01T10:20:26.510Z,11.29
2023-03-01T10:22:55.992Z,11.88
2023-03-01T10:25:25.570Z,12.76
2023-03-01T10:28:00.919Z,12.88
2023-03-01T10:30:30.492Z,13.23
2023-03-01T10:32:58.288Z,13.56
2023-03-01T10:35:28.574Z,13.67
2023-03-01T10:38:08.022Z,13.63
2023-03-01T10:40:36.880Z,13.21
2023-03-01T10:43:05.972Z,12.93
2023-03-01T10:45:38.168Z,12.93
2023-03-01T10:48:27.077Z,13.15
2023-03-01T10:50:59.685Z,13.05
2023-03-01T10:53:48.790Z,13.19
2023-03-01T10:56:16.397Z,13.27
2023-03-01T10:59:03.108Z,13.05
2023-03-01T11:01:37.003Z,13.14
2023-03-01T11:04:06.838Z,13.08
2023-03-01T11:06:44.769Z,12.98
2023-03-01T11:09:23.462Z,13.13
2023-03-01T11:11:55.190Z,12.82
2023-03-01T11:14:28.372Z,12.52
2023-03-01T11:17:05.280Z,12.65
2023-03-01T11:19:33.281Z,12.85
2023-03-01T11:22:22.542Z,12.68
2023-03-01T11:25:08.561Z,12.86
2023-03-01T11:27:41.696Z,12.75
2023-03-01T11:30:36.437Z,13.16
2023-03-01T11:33:08.821Z,13.22
2023-03-01T11:35:39.876Z,13.35
2023-03-01T11:38:24.826Z,13.13
2023-03-01T11:41:13.046Z,13.11
2023-03-01T11:43:42.628Z,13.02
2023-03-01T11:46:36.048Z,12.81
2023-03-01T11:49:28.664Z,12.77
2023-03-01T11:52:03.068Z,12.82
2023-03-01T11:54:54.434Z,12.61
2023-03-01T11:57:43.369Z,12.64
2023-03-01T12:00:13.853Z,12.77
2023-03-01T12:02:52.173Z,12.86
2023-03-01T12:05:26.512Z,12.88
2023-03-01T12:08:09.054Z,12.82
2023-03-01T12:11:09.901Z,12.64
2023-03-01T12:14:04.450Z,13.02
2023-03-01T12:16:41.019Z,12.97
2023-03-01T12:19:38.669Z,13.19
2023-03-01T12:22:38.954Z,13.30
2023-03-01T12:25:21.673Z,13.44
2023-03-01T12:28:10.021Z,13.37
2023-03-01T12:30:39.193Z,13.45
2023-03-01T12:33:46.122Z,13.72
2023-03-01T12:36:49.880Z,13.97
2023-03-01T12:39:40.920Z,14.24
2023-03-01T12:42:28.216Z,13.89
2023-03-01T12:45:12.983Z,14.07
2023-03-01T12:47:57.314Z,13.94
2023-03-01T12:50:27.328Z,13.64
2023-03-01T12:52:58.496Z,13.49
2023-03-01T12:55:38.832Z,13.43
2023-03-01T12:58:49.810Z,13.59
2023-03-01T13:01:28.340Z,13.72
2023-03-01T13:04:11.842Z,13.85
2023-03-01T13:06:49.237Z,14.03
2023-03-01T13:09:46.540Z,14.27
2023-03-01T13:12:50.288Z,14.01
2023-03-01T13:15:22.762Z,13.91
2023-03-01T13:18:01.677Z,13.88
2023-03-01T13:20:43.354Z,14.16
2023-03-01T13:23:22.245Z,14.06
2023-03-01T13:25:58.487Z,14.08
2023-03-01T13:28:50.163Z,13.95
2023-03-01T13:31:16.656Z,13.88
2023-03-01T13:33:47.297Z,13.71
2023-03-01T13:36:30.176Z,13.85
2023-03-01T13:39:06.278Z,14.08
2023-03-01T13:41:41.859Z,14.13
2023-03-01T13:44:23.674Z,14.05
2023-03-01T13:46:52.793Z,13.91
2023-03-01T13:49:23.533Z,13.85
2023-03-01T13:51:51.976Z,14.01
2023-03-01T13:54:31.958Z,13.93
2023-03-01T13:57:02.228Z,13.70
2023-03-01T13:59:31.013Z,13.87
2023-03-01T14:02:00.510Z,13.64
2023-03-01T14:04:36.542Z,13.67
2023-03-01T14:07:17.724Z,13.55
2023-03-01T14:09:46.754Z,13.66
2023-03-01T14:12:40.968Z,13.89
2023-03-01T14:15:19.199Z,14.11
2023-03-01T14:17:55.725Z,13.73
2023-03-01T14:20:33.177Z,13.98
2023-03-01T14:23:10.009Z,14.14
2023-03-01T14:25:39.288Z,14.35
2023-03-01T14:28:06.282Z,14.54
2023-03-01T14:30:43.117Z,14.56
2023-03-01T14:33:42.106Z,14.34
2023-03-01T14:36:14.277Z,14.21
2023-03-01T14:38:48.305Z,13.82
2023-03-01T14:41:24.546Z,13.89
2023-03-01T14:44:00.686Z,13.95
2023-03-01T14:46:33.050Z,13.97
2023-03-01T14:49:24.033Z,13.81
2023-03-01T14:52:07.195Z,14.18
2023-03-01T14:54:49.212Z,14.05
2023-03-01T14:57:19.782Z,13.99
2023-03-01T14:59:48.614Z,13.73
2023-03-01T15:02:20.146Z,14.00
2023-03-01T15:04:50.254Z,14.29
2023-03-01T15:07:17.450Z,14.36
2023-03-01T15:09:44.939Z,14.39
2023-03-01T15:12:29.519Z,14.48
2023-03-01T15:15:04.400Z,14.39
2023-03-01T15:17:35.195Z,14.40
2023-03-01T15:20:26.624Z,14.53
2023-03-01T15:22:55.241Z,14.66
2023-03-01T15:25:25.368Z,14.68
2023-03-01T15:27:55.036Z,14.47
2023-03-01T15:30:25.743Z,14.51
2023-03-01T15:33:22.075Z,14.24
2023-03-01T15:35:54.974Z,14.31
2023-03-01T15:38:51.775Z,14.28
2023-03-01T15:41:49.303Z,14.19
2023-03-01T15:44:34.881Z,14.01
2023-03-01T15:47:29.898Z,13.83
2023-03-01T15:49:59.000Z,14.00
2023-03-01T15:52:37.612Z,13.92
2023-03-01T15:55:07.370Z,13.79
2023-03-01T15:57:33.987Z,13.79
2023-03-01T16:00:00.540Z,13.89
2023-03-01T16:02:27.193Z,14.06
2023-03-01T16:04:54.733Z,14.30
2023-03-01T16:07:21.302Z,14.04
2023-03-01T16:09:47.806Z,14.03
2023-03-01T16:12:16.041Z,14.05
2023-03-01T16:14:42.635Z,14.00
2023-03-01T16:17:11.031Z,14.19
2023-03-01T16:19:38.720Z,13.93
2023-03-01T16:22:05.842Z,13.94
2023-03-01T16:24:32.579Z,14.14
2023-03-01T16:26:59.182Z,14.15
2023-03-01T16:29:25.793Z,14.12
2023-03-01T16:31:52.378Z,13.86
2023-03-01T16:34:19.081Z,13.70
2023-03-01T16:36:45.561Z,13.47
2023-03-01T16:39:12.214Z,13.28
2023-03-01T16:41:38.719Z,13.16
2023-03-01T16:44:05.392Z,12.96
2023-03-01T16:46:31.937Z,12.82
2023-03-01T16:48:58.549Z,12.70
2023-03-01T16:51:25.847Z,12.79
2023-03-01T16:53:52.951Z,12.82
2023-03-01T16:56:20.020Z,12.69
2023-03-01T16:58:46.930Z,12.40
2023-03-01T17:01:15.048Z,12.45
2023-03-01T17:03:42.061Z,12.35
2023-03-01T17:06:14.490Z,12.22
2023-03-01T17:08:41.651Z,12.16
2023-03-01T17:11:11.440Z,12.14
2023-03-01T17:13:38.937Z,12.14
2023-03-01T17:16:08.024Z,12.31
2023-03-01T17:18:34.772Z,12.18
2023-03-01T17:21:01.908Z,12.18
2023-03-01T17:23:29.782Z,12.16
2023-03-01T17:25:56.521Z,12.25
2023-03-01T17:28:24.800Z,12.16
2023-03-01T17:30:51.673Z,12.17
2023-03-01T17:33:19.446Z,12.03
2023-03-01T17:35:47.397Z,11.97
2023-03-01T17:38:17.572Z,11.99
2023-03-01T17:40:48.010Z,11.84
2023-03-01T17:43:16.786Z,11.82
2023-03-01T17:45:48.369Z,11.58
2023-03-01T17:48:16.788Z,11.72
2023-03-01T17:50:43.832Z,11.73
2023-03-01T17:53:11.602Z,11.72
2023-03-01T17:55:39.792Z,11.75
2023-03-01T17:58:07.912Z,11.64
2023-03-01T18:00:35.466Z,11.76
2023-03-01T18:03:02.227Z,11.70
2023-03-01T18:05:35.884Z,11.57
2023-03-01T18:08:02.475Z,11.31
2023-03-01T18:10:29.263Z,11.37
2023-03-01T18:12:55.840Z,11.36
2023-03-01T18:15:22.417Z,11.32
2023-03-01T18:17:49.274Z,11.28
2023-03-01T18:20:16.005Z,11.35
2023-03-01T18:22:42.826Z,11.38
2023-03-01T18:25:09.697Z,11.45
2023-03-01T18:27:36.953Z,11.28
2023-03-01T18:30:08.566Z,11.31
2023-03-01T18:32:35.244Z,11.31
2023-03-01T18:35:01.829Z,11.23
2023-03-01T18:37:28.425Z,11.30
2023-03-01T18:39:54.970Z,11.26
2023-03-01T18:42:22.026Z,11.19
2023-03-01T18:44:49.328Z,11.17
2023-03-01T18:47:17.005Z,11.22
2023-03-01T18:49:44.235Z,11.24
2023-03-01T18:52:11.149Z,11.17
2023-03-01T18:54:37.952Z,11.36
2023-03-01T18:57:04.774Z,11.38
2023-03-01T18:59:31.554Z,11.24
2023-03-01T19:01:58.275Z,11.20
2023-03-01T19:04:25.068Z,11.23
2023-03-01T19:06:51.641Z,10.75
2023-03-01T19:09:18.182Z,10.67
2023-03-01T19:11:44.708Z,10.84
2023-03-01T19:14:11.306Z,10.98
2023-03-01T19:16:37.965Z,11.07
2023-03-01T19:19:06.015Z,10.81
2023-03-01T19:21:33.494Z,10.95
2023-03-01T19:24:02.244Z,11.05
2023-03-01T19:26:29.851Z,10.98
2023-03-01T19:28:57.147Z,11.17
2023-03-01T19:31:27.037Z,11.08
2023-03-01T19:33:59.403Z,10.66
2023-03-01T19:36:35.302Z,10.67
2023-03-01T19:39:06.646Z,10.73
2023-03-01T19:41:33.629Z,10.75
2023-03-01T19:44:04.417Z,10.81
2023-03-01T19:46:32.535Z,10.51
2023-03-01T19:49:00.384Z,10.11
2023-03-01T19:51:27.725Z,10.32
2023-03-01T19:53:54.892Z,10.10
2023-03-01T19:56:21.537Z,10.34
2023-03-01T19:58:50.118Z,10.59
2023-03-01T20:01:19.445Z,10.62
2023-03-01T20:03:47.226Z,10.86
2023-03-01T20:06:17.392Z,10.95
2023-03-01T20:08:44.598Z,10.83
2023-03-01T20:11:13.555Z,10.58
2023-03-01T20:13:40.330Z,10.61
2023-03-01T20:16:07.293Z,10.63
2023-03-01T20:18:33.939Z,10.72
2023-03-01T20:21:01.806Z,10.50
2023-03-01T20:23:29.524Z,10.44
2023-03-01T20:26:23.056Z,10.61
2023-03-01T20:28:52.201Z,10.62
2023-03-01T20:31:21.102Z,10.43
2023-03-01T20:33:48.278Z,10.49
2023-03-01T20:36:15.494Z,10.62
2023-03-01T20:38:42.077Z,10.33
2023-03-01T20:41:11.424Z,10.25
2023-03-01T20:43:38.670Z,10.29
2023-03-01T20:46:06.709Z,10.30
2023-03-01T20:48:33.870Z,10.38
2023-03-01T20:51:05.101Z,10.36
2023-03-01T20:53:31.674Z,10.37
2023-03-01T20:56:03.496Z,10.62
2023-03-01T20:58:34.469Z,10.53
2023-03-01T21:01:02.111Z,10.56
2023-03-01T21:03:29.132Z,10.67
2023-03-01T21:06:01.971Z,10.57
2023-03-01T21:08:29.445Z,10.54
2023-03-01T21:10:57.234Z,10.65
2023-03-01T21:13:25.318Z,10.62
2023-03-01T21:15:56.176Z,10.58
2023-03-01T21:18:23.253Z,10.49
2023-03-01T21:20:49.727Z,10.49
2023-03-01T21:23:19.219Z,10.51
2023-03-01T21:25:45.806Z,10.47
2023-03-01T21:28:12.361Z,10.41
2023-03-01T21:30:38.938Z,10.28
2023-03-01T21:33:05.454Z,10.41
2023-03-01T21:35:32.093Z,10.50
2023-03-01T21:37:58.701Z,10.49
2023-03-01T21:40:25.173Z,10.52
2023-03-01T21:42:51.837Z,10.55
2023-03-01T21:45:18.317Z,10.41
2023-03-01T21:47:44.985Z,10.38
2023-03-01T21:50:11.815Z,10.30
2023-03-01T21:52:38.425Z,10.47
2023-03-01T21:55:05.266Z,10.43
2023-03-01T21:57:31.925Z,10.40
2023-03-01T21:59:58.405Z,10.39
2023-03-01T22:02:25.191Z,10.31
2023-03-01T22:04:57.502Z,10.38
2023-03-01T22:07:24.192Z,10.30
2023-03-01T22:09:50.781Z,10.26
2023-03-01T22:12:17.335Z,10.29
2023-03-01T22:14:43.890Z,10.34
2023-03-01T22:17:10.485Z,10.38
2023-03-01T22:19:37.079Z,10.26
2023-03-01T22:22:04.134Z,10.23
2023-03-01T22:24:30.807Z,10.26
2023-03-01T22:26:57.550Z,10.26
2023-03-01T22:29:29.285Z,10.16
2023-03-01T22:31:57.472Z,10.19
2023-03-01T22:34:24.286Z,10.18
2023-03-01T22:36:51.380Z,9.92
2023-03-01T22:39:19.784Z,10.01
2023-03-01T22:41:47.565Z,9.99
2023-03-01T22:44:17.291Z,9.90
2023-03-01T22:46:44.865Z,9.87
2023-03-01T22:49:11.788Z,9.86
2023-03-01T22:51:40.287Z,9.78
2023-03-01T22:54:07.959Z,9.61
2023-03-01T22:56:36.794Z,9.69
2023-03-01T22:59:10.093Z,9.76
2023-03-01T23:01:38.541Z,9.82
2023-03-01T23:04:05.524Z,9.99
2023-03-01T23:06:33.395Z,9.97
2023-03-01T23:09:01.835Z,9.98
2023-03-01T23:11:29.289Z,9.93
2023-03-01T23:13:55.929Z,9.87
2023-03-01T23:16:29.627Z,9.95
2023-03-01T23:18:58.929Z,9.89
2023-03-01T23:21:26.305Z,9.94
2023-03-01T23:23:55.012Z,9.92
2023-03-01T23:26:22.266Z,9.86
2023-03-01T23:28:50.726Z,9.62
2023-03-01T23:31:17.997Z,9.37
2023-03-01T23:33:45.867Z,9.44
2023-03-01T23:36:19.798Z,9.43
2023-03-01T23:38:48.036Z,9.46
2023-03-01T23:41:17.477Z,9.45
2023-03-01T23:43:45.884Z,9.32
2023-03-01T23:46:14.353Z,9.43
2023-03-01T23:48:42.436Z,9.50
2023-03-01T23:51:09.312Z,9.69
2023-03-01T23:53:53.885Z,9.56
2023-03-01T23:56:29.168Z,9.36
2023-03-01T23:58:56.621Z,9.66
